createdAt,value
2022-12-20T00:01:56.508Z,61.66
2022-12-20T00:04:24.995Z,61.81
2022-12-20T00:06:53.405Z,62.04
2022-12-20T00:09:21.762Z,61.92
2022-12-20T00:11:50.083Z,61.78
2022-12-20T00:14:19.016Z,62.33
2022-12-20T00:16:47.328Z,62.04
2022-12-20T00:19:15.659Z,62.00
2022-12-20T00:21:43.980Z,62.15
2022-12-20T00:24:12.489Z,62.21
2022-12-20T00:26:40.894Z,62.39
2022-12-20T00:29:09.307Z,61.98
2022-12-20T00:31:38.177Z,62.04
2022-12-20T00:34:06.961Z,62.09
2022-12-20T00:36:35.556Z,62.23
2022-12-20T00:39:04.028Z,61.97
2022-12-20T00:41:34.869Z,62.28
2022-12-20T00:44:04.580Z,62.18
2022-12-20T00:46:33.647Z,62.33
2022-12-20T00:49:02.400Z,62.03
2022-12-20T00:51:33.495Z,62.31
2022-12-20T00:54:01.899Z,62.39
2022-12-20T00:56:30.263Z,62.57
2022-12-20T00:59:01.077Z,62.69
2022-12-20T01:01:32.555Z,62.75
2022-12-20T01:04:01.846Z,62.64
2022-12-20T01:06:31.979Z,62.52
2022-12-20T01:09:01.171Z,62.51
2022-12-20T01:11:32.379Z,62.77
2022-12-20T01:14:04.388Z,62.90
2022-12-20T01:16:58.962Z,63.00
2022-12-20T01:19:27.485Z,63.02
2022-12-20T01:21:56.116Z,63.46
2022-12-20T01:24:24.478Z,63.46
2022-12-20T01:26:52.990Z,63.24
2022-12-20T01:29:21.455Z,63.54
2022-12-20T01:31:49.862Z,63.65
2022-12-20T01:34:18.708Z,63.74
2022-12-20T01:36:47.055Z,63.68
2022-12-20T01:39:17.849Z,63.68
2022-12-20T01:41:47.386Z,64.05
2022-12-20T01:44:18.556Z,64.06
2022-12-20T01:46:49.755Z,64.06
2022-12-20T01:49:25.757Z,64.08
2022-12-20T01:52:16.787Z,63.84
2022-12-20T01:54:56.528Z,64.06
2022-12-20T01:57:52.575Z,63.90
2022-12-20T02:00:21.439Z,63.99
2022-12-20T02:02:51.178Z,64.23
2022-12-20T02:05:21.777Z,64.36
2022-12-20T02:07:52.929Z,64.41
2022-12-20T02:10:24.967Z,64.66
2022-12-20T02:13:07.561Z,64.60
2022-12-20T02:15:41.489Z,64.72
2022-12-20T02:18:49.339Z,64.83
2022-12-20T02:21:37.265Z,64.94
2022-12-20T02:24:35.214Z,64.73
2022-12-20T02:27:25.044Z,64.76
2022-12-20T02:30:09.388Z,64.47
2022-12-20T02:32:50.047Z,64.33
2022-12-20T02:35:24.630Z,64.50
2022-12-20T02:37:55.981Z,64.55
2022-12-20T02:40:28.912Z,64.77
2022-12-20T02:43:02.967Z,64.99
2022-12-20T02:45:37.722Z,64.90
2022-12-20T02:48:07.528Z,64.93
2022-12-20T02:50:45.614Z,64.98
2022-12-20T02:53:15.347Z,65.01
2022-12-20T02:56:12.817Z,65.44
2022-12-20T02:59:37.467Z,65.12
2022-12-20T03:02:07.291Z,65.19
2022-12-20T03:04:40.606Z,65.29
2022-12-20T03:07:12.609Z,65.52
2022-12-20T03:09:43.928Z,65.31
2022-12-20T03:12:14.313Z,65.34
2022-12-20T03:14:42.671Z,65.18
2022-12-20T03:17:11.093Z,65.20
2022-12-20T03:19:39.513Z,65.01
2022-12-20T03:22:07.865Z,65.21
2022-12-20T03:24:36.187Z,65.07
2022-12-20T03:27:04.468Z,65.42
2022-12-20T03:29:32.842Z,65.32
2022-12-20T03:32:01.167Z,65.45
2022-12-20T03:34:29.498Z,65.57
2022-12-20T03:36:57.789Z,65.86
2022-12-20T03:39:26.113Z,65.75
2022-12-20T03:41:54.526Z,66.03
2022-12-20T03:44:23.051Z,65.72
2022-12-20T03:46:51.513Z,65.85
2022-12-20T03:49:19.824Z,65.84
2022-12-20T03:51:48.220Z,65.69
2022-12-20T03:54:16.623Z,65.72
2022-12-20T03:56:45.029Z,65.72
2022-12-20T03:59:13.330Z,65.88
2022-12-20T04:01:41.960Z,65.73
2022-12-20T04:04:14.202Z,65.59
2022-12-20T04:06:43.186Z,65.88
2022-12-20T04:09:11.829Z,65.98
2022-12-20T04:11:40.597Z,65.68
2022-12-20T04:14:08.942Z,65.97
2022-12-20T04:16:37.785Z,65.75
2022-12-20T04:19:06.370Z,65.75
2022-12-20T04:21:37.083Z,65.93
2022-12-20T04:24:06.887Z,65.84
2022-12-20T04:26:35.631Z,65.90
2022-12-20T04:29:04.100Z,65.67
2022-12-20T04:31:32.679Z,65.93
2022-12-20T04:34:01.086Z,66.13
2022-12-20T04:36:29.417Z,66.19
2022-12-20T04:38:57.729Z,66.29
2022-12-20T04:41:27.946Z,66.39
2022-12-20T04:43:59.660Z,66.63
2022-12-20T04:46:28.324Z,66.54
2022-12-20T04:48:58.981Z,66.51
2022-12-20T04:51:28.946Z,66.34
2022-12-20T04:53:58.337Z,66.63
2022-12-20T04:56:29.693Z,66.65
2022-12-20T04:59:00.098Z,66.53
2022-12-20T05:01:28.923Z,67.03
2022-12-20T05:03:57.635Z,66.65
2022-12-20T05:06:26.370Z,66.83
2022-12-20T05:08:56.125Z,67.02
2022-12-20T05:11:24.475Z,67.04
2022-12-20T05:13:52.903Z,66.91
2022-12-20T05:16:21.494Z,67.14
2022-12-20T05:18:50.005Z,66.99
2022-12-20T05:21:36.621Z,67.25
2022-12-20T05:24:23.357Z,66.91
2022-12-20T05:26:51.925Z,67.03
2022-12-20T05:29:20.369Z,67.23
2022-12-20T05:31:48.826Z,67.08
2022-12-20T05:34:17.738Z,67.30
2022-12-20T05:36:46.047Z,67.25
2022-12-20T05:39:14.615Z,67.24
2022-12-20T05:41:42.878Z,67.12
2022-12-20T05:44:11.175Z,67.12
2022-12-20T05:46:39.660Z,67.00
2022-12-20T05:49:07.988Z,66.77
2022-12-20T05:51:36.455Z,66.89
2022-12-20T05:54:04.928Z,67.07
2022-12-20T05:56:33.259Z,66.82
2022-12-20T05:59:01.675Z,67.07
2022-12-20T06:01:30.130Z,66.82
2022-12-20T06:03:58.582Z,66.95
2022-12-20T06:06:26.891Z,67.42
2022-12-20T06:08:57.188Z,66.84
2022-12-20T06:11:29.823Z,67.10
2022-12-20T06:14:00.285Z,66.89
2022-12-20T06:16:28.844Z,67.15
2022-12-20T06:18:57.761Z,66.99
2022-12-20T06:21:26.205Z,67.35
2022-12-20T06:23:54.531Z,67.13
2022-12-20T06:26:24.205Z,67.44
2022-12-20T06:28:57.972Z,67.26
2022-12-20T06:31:26.333Z,67.39
2022-12-20T06:33:54.872Z,67.55
2022-12-20T06:36:23.130Z,67.36
2022-12-20T06:38:51.792Z,67.64
2022-12-20T06:41:20.543Z,67.51
2022-12-20T06:43:49.099Z,67.49
2022-12-20T06:46:17.522Z,67.61
2022-12-20T06:48:45.892Z,67.85
2022-12-20T06:51:14.187Z,67.83
2022-12-20T06:53:42.556Z,67.66
2022-12-20T06:56:10.914Z,67.88
2022-12-20T06:58:39.196Z,68.08
2022-12-20T07:01:07.752Z,67.98
2022-12-20T07:03:36.111Z,68.02
2022-12-20T07:06:05.045Z,67.96
2022-12-20T07:08:33.678Z,67.83
2022-12-20T07:11:07.357Z,67.79
2022-12-20T07:13:35.964Z,67.67
2022-12-20T07:16:05.797Z,67.59
2022-12-20T07:18:36.293Z,67.69
2022-12-20T07:21:06.880Z,68.02
2022-12-20T07:23:35.662Z,68.25
2022-12-20T07:26:04.867Z,68.12
2022-12-20T07:28:33.263Z,67.98
2022-12-20T07:31:05.422Z,67.94
2022-12-20T07:33:34.583Z,68.08
2022-12-20T07:36:13.448Z,68.26
2022-12-20T07:38:41.795Z,68.52
2022-12-20T07:41:12.653Z,68.36
2022-12-20T07:43:41.111Z,68.06
2022-12-20T07:46:10.021Z,68.38
2022-12-20T07:48:38.699Z,68.44
2022-12-20T07:51:21.412Z,68.28
2022-12-20T07:53:54.193Z,68.60
2022-12-20T07:56:24.283Z,68.67
2022-12-20T07:58:57.256Z,68.50
2022-12-20T08:01:28.224Z,68.38
2022-12-20T08:04:06.522Z,68.67
2022-12-20T08:06:37.185Z,68.40
2022-12-20T08:09:07.587Z,68.66
2022-12-20T08:11:38.237Z,68.67
2022-12-20T08:14:09.173Z,68.92
2022-12-20T08:16:37.759Z,69.04
2022-12-20T08:19:06.059Z,68.93
2022-12-20T08:21:34.713Z,69.33
2022-12-20T08:24:03.155Z,68.89
2022-12-20T08:26:31.500Z,69.52
2022-12-20T08:28:59.852Z,68.99
2022-12-20T08:31:28.184Z,69.09
2022-12-20T08:33:57.530Z,69.48
2022-12-20T08:36:25.883Z,69.26
2022-12-20T08:38:54.339Z,69.15
2022-12-20T08:41:22.845Z,69.50
2022-12-20T08:43:51.200Z,69.06
2022-12-20T08:46:19.564Z,69.28
2022-12-20T08:48:47.850Z,69.09
2022-12-20T08:51:16.161Z,69.19
2022-12-20T08:53:44.560Z,69.23
2022-12-20T08:56:18.526Z,69.66
2022-12-20T08:58:47.341Z,69.33
2022-12-20T09:01:18.530Z,69.62
2022-12-20T09:03:47.958Z,69.56
2022-12-20T09:06:20.119Z,69.51
2022-12-20T09:08:49.724Z,69.24
2022-12-20T09:11:21.249Z,69.11
2022-12-20T09:13:51.870Z,69.38
2022-12-20T09:16:23.390Z,69.52
2022-12-20T09:19:02.477Z,69.63
2022-12-20T09:21:33.412Z,69.45
2022-12-20T09:24:02.042Z,69.58
2022-12-20T09:26:31.638Z,69.84
2022-12-20T09:29:00.295Z,69.57
2022-12-20T09:31:29.027Z,69.88
2022-12-20T09:33:59.681Z,69.82
2022-12-20T09:36:29.812Z,69.83
2022-12-20T09:38:58.860Z,69.66
2022-12-20T09:41:40.750Z,69.78
2022-12-20T09:44:31.331Z,69.51
2022-12-20T09:47:10.700Z,69.97
2022-12-20T09:49:43.974Z,70.13
2022-12-20T09:52:58.472Z,70.07
2022-12-20T09:55:49.209Z,70.20
2022-12-20T09:58:48.270Z,70.00
2022-12-20T10:01:25.007Z,70.35
2022-12-20T10:03:55.693Z,70.28
2022-12-20T10:06:42.524Z,69.99
2022-12-20T10:09:30.990Z,69.97
2022-12-20T10:12:14.222Z,70.13
2022-12-20T10:14:57.065Z,69.81
2022-12-20T10:17:35.610Z,70.16
2022-12-20T10:20:12.735Z,69.88
2022-12-20T10:23:00.622Z,70.33
2022-12-20T10:25:34.222Z,69.82
2022-12-20T10:28:07.787Z,69.85
2022-12-20T10:30:36.602Z,70.56
2022-12-20T10:33:05.093Z,70.53
2022-12-20T10:35:40.071Z,70.16
2022-12-20T10:38:16.713Z,70.39
2022-12-20T10:41:19.998Z,70.14
2022-12-20T10:43:46.526Z,69.97
2022-12-20T10:46:20.164Z,70.16
2022-12-20T10:48:51.653Z,70.52
2022-12-20T10:51:23.171Z,70.98
2022-12-20T10:53:51.485Z,70.86
2022-12-20T10:56:39.964Z,70.47
2022-12-20T10:59:18.179Z,70.87
2022-12-20T11:01:49.492Z,70.57
2022-12-20T11:04:37.127Z,71.02
2022-12-20T11:07:27.869Z,70.86
2022-12-20T11:09:58.809Z,71.02
2022-12-20T11:12:27.298Z,70.88
2022-12-20T11:15:29.575Z,70.80
2022-12-20T11:18:42.211Z,70.48
2022-12-20T11:21:28.265Z,70.56
2022-12-20T11:24:19.813Z,70.90
2022-12-20T11:27:03.116Z,71.37
2022-12-20T11:29:34.364Z,70.88
2022-12-20T11:32:23.549Z,70.79
2022-12-20T11:35:00.702Z,70.83
2022-12-20T11:37:33.528Z,71.52
2022-12-20T11:40:23.976Z,71.01
2022-12-20T11:43:04.772Z,71.59
2022-12-20T11:45:51.728Z,71.23
2022-12-20T11:48:27.967Z,71.13
2022-12-20T11:51:07.563Z,70.99
2022-12-20T11:54:00.243Z,71.20
2022-12-20T11:56:44.799Z,71.19
2022-12-20T11:59:34.977Z,71.42
2022-12-20T12:02:17.856Z,71.41
2022-12-20T12:04:57.584Z,71.57
2022-12-20T12:07:32.289Z,71.80
2022-12-20T12:10:25.560Z,71.64
2022-12-20T12:13:03.013Z,71.55
2022-12-20T12:15:57.409Z,71.63
2022-12-20T12:18:29.890Z,71.33
2022-12-20T12:21:15.322Z,71.49
2022-12-20T12:23:46.524Z,71.70
2022-12-20T12:26:26.048Z,71.28
2022-12-20T12:29:02.530Z,71.61
2022-12-20T12:31:37.037Z,71.87
2022-12-20T12:34:13.072Z,71.91
2022-12-20T12:36:55.884Z,71.58
2022-12-20T12:40:01.254Z,71.48
2022-12-20T12:43:06.839Z,71.76
2022-12-20T12:45:51.698Z,71.72
2022-12-20T12:49:07.303Z,71.60
2022-12-20T12:51:38.899Z,71.93
2022-12-20T12:54:29.420Z,71.79
2022-12-20T12:57:12.290Z,71.56
2022-12-20T12:59:40.608Z,71.37
2022-12-20T13:02:15.247Z,71.52
2022-12-20T13:05:25.521Z,72.04
2022-12-20T13:07:54.648Z,71.62
2022-12-20T13:10:30.519Z,71.53
2022-12-20T13:13:01.956Z,71.47
2022-12-20T13:15:31.484Z,71.32
2022-12-20T13:18:18.837Z,71.82
2022-12-20T13:21:20.531Z,71.16
2022-12-20T13:23:48.853Z,71.46
2022-12-20T13:26:55.905Z,71.39
2022-12-20T13:29:29.890Z,72.03
2022-12-20T13:31:58.326Z,71.95
2022-12-20T13:34:56.924Z,71.75
2022-12-20T13:37:30.701Z,71.52
2022-12-20T13:40:01.122Z,71.86
2022-12-20T13:42:38.648Z,71.68
2022-12-20T13:45:13.390Z,71.33
2022-12-20T13:47:55.700Z,71.85
2022-12-20T13:50:41.565Z,71.54
2022-12-20T13:53:20.444Z,71.76
2022-12-20T13:55:50.531Z,72.18
2022-12-20T13:58:28.089Z,71.85
2022-12-20T14:01:06.750Z,71.38
2022-12-20T14:03:41.694Z,71.73
2022-12-20T14:06:15.377Z,71.97
2022-12-20T14:08:48.367Z,71.57
2022-12-20T14:11:20.069Z,71.90
2022-12-20T14:13:56.228Z,71.39
2022-12-20T14:16:27.381Z,71.55
2022-12-20T14:18:58.530Z,71.63
2022-12-20T14:21:28.389Z,71.85
2022-12-20T14:24:00.285Z,72.08
2022-12-20T14:26:30.684Z,71.66
2022-12-20T14:29:01.619Z,71.58
2022-12-20T14:31:49.416Z,71.96
2022-12-20T14:34:29.701Z,71.90
2022-12-20T14:37:26.883Z,71.93
2022-12-20T14:40:11.816Z,71.92
2022-12-20T14:42:41.736Z,72.14
2022-12-20T14:45:19.444Z,71.56
2022-12-20T14:47:51.796Z,71.84
2022-12-20T14:50:23.497Z,71.72
2022-12-20T14:52:51.950Z,72.04
2022-12-20T14:55:32.371Z,71.87
2022-12-20T14:58:01.674Z,72.27
2022-12-20T15:00:34.052Z,72.15
2022-12-20T15:03:13.877Z,71.85
2022-12-20T15:05:51.670Z,72.20
2022-12-20T15:08:29.895Z,71.74
2022-12-20T15:11:01.990Z,71.72
2022-12-20T15:13:39.054Z,72.21
2022-12-20T15:16:16.942Z,72.19
2022-12-20T15:18:46.375Z,72.31
2022-12-20T15:21:18.013Z,71.91
2022-12-20T15:23:49.694Z,71.96
2022-12-20T15:26:20.134Z,72.54
2022-12-20T15:28:48.607Z,72.18
2022-12-20T15:31:19.774Z,72.47
2022-12-20T15:33:48.451Z,72.39
2022-12-20T15:36:27.329Z,72.19
2022-12-20T15:39:14.089Z,72.21
2022-12-20T15:41:47.195Z,72.46
2022-12-20T15:44:21.918Z,72.38
2022-12-20T15:46:50.552Z,72.33
2022-12-20T15:49:24.473Z,72.24
2022-12-20T15:51:54.417Z,72.71
2022-12-20T15:54:30.657Z,72.47
2022-12-20T15:57:03.991Z,72.45
2022-12-20T16:02:25.874Z,72.66
2022-12-20T16:04:56.228Z,72.68
2022-12-20T16:07:25.203Z,72.64
2022-12-20T16:09:53.565Z,72.24
2022-12-20T16:12:35.985Z,72.06
2022-12-20T16:15:05.034Z,72.02
2022-12-20T16:17:33.397Z,72.41
2022-12-20T16:20:01.780Z,71.86
2022-12-20T16:22:30.187Z,72.28
2022-12-20T16:24:58.535Z,71.67
2022-12-20T16:27:26.917Z,71.82
2022-12-20T16:29:55.183Z,71.92
2022-12-20T16:32:23.813Z,71.35
2022-12-20T16:34:53.056Z,71.70
2022-12-20T16:37:21.785Z,71.89
2022-12-20T16:39:50.150Z,71.39
2022-12-20T16:42:23.685Z,70.89
2022-12-20T16:44:55.720Z,70.86
2022-12-20T16:47:24.087Z,70.66
2022-12-20T16:49:53.781Z,71.05
2022-12-20T16:52:23.753Z,70.63
2022-12-20T16:54:53.232Z,70.66
2022-12-20T16:57:22.367Z,70.55
2022-12-20T16:59:50.810Z,70.61
2022-12-20T17:02:33.853Z,70.77
2022-12-20T17:05:03.159Z,71.06
2022-12-20T17:07:35.297Z,71.15
2022-12-20T17:10:06.935Z,71.23
2022-12-20T17:12:35.278Z,71.08
2022-12-20T17:15:05.095Z,71.28
2022-12-20T17:17:33.510Z,71.35
2022-12-20T17:20:02.062Z,70.89
2022-12-20T17:22:31.040Z,71.05
2022-12-20T17:24:59.410Z,70.79
2022-12-20T17:27:27.809Z,71.21
2022-12-20T17:29:58.381Z,71.10
2022-12-20T17:32:26.763Z,71.08
2022-12-20T17:34:55.371Z,70.98
2022-12-20T17:37:25.575Z,70.99
2022-12-20T17:39:53.991Z,70.43
2022-12-20T17:42:27.039Z,70.76
2022-12-20T17:44:59.162Z,70.51
2022-12-20T17:47:27.489Z,70.30
2022-12-20T17:49:55.963Z,70.12
2022-12-20T17:52:24.423Z,69.74
2022-12-20T17:54:52.704Z,69.93
2022-12-20T17:57:21.085Z,70.02
2022-12-20T17:59:49.444Z,69.74
2022-12-20T18:02:25.990Z,69.84
2022-12-20T18:04:54.684Z,69.65
2022-12-20T18:07:23.034Z,69.54
2022-12-20T18:09:51.806Z,69.68
2022-12-20T18:12:20.300Z,69.52
2022-12-20T18:14:51.058Z,69.49
2022-12-20T18:17:19.488Z,69.40
2022-12-20T18:19:47.850Z,69.11
2022-12-20T18:22:16.631Z,69.43
2022-12-20T18:24:45.243Z,69.45
2022-12-20T18:27:13.884Z,69.37
2022-12-20T18:29:42.265Z,69.13
2022-12-20T18:32:10.683Z,69.06
2022-12-20T18:34:39.246Z,69.03
2022-12-20T18:37:07.681Z,68.87
2022-12-20T18:39:37.039Z,68.60
2022-12-20T18:42:05.544Z,68.54
2022-12-20T18:44:36.517Z,68.58
2022-12-20T18:47:05.037Z,68.42
2022-12-20T18:49:33.486Z,68.36
2022-12-20T18:52:02.364Z,68.19
2022-12-20T18:54:31.352Z,67.72
2022-12-20T18:56:59.949Z,68.19
2022-12-20T18:59:28.401Z,68.07
2022-12-20T19:01:56.889Z,67.89
2022-12-20T19:04:25.490Z,67.83
2022-12-20T19:06:56.786Z,67.77
2022-12-20T19:09:25.260Z,67.43
2022-12-20T19:11:57.407Z,67.33
2022-12-20T19:14:26.806Z,67.27
2022-12-20T19:16:55.825Z,67.23
2022-12-20T19:19:24.241Z,66.78
2022-12-20T19:21:52.583Z,66.69
2022-12-20T19:24:20.930Z,66.83
2022-12-20T19:26:49.843Z,66.83
2022-12-20T19:29:18.221Z,66.48
2022-12-20T19:31:46.731Z,66.45
2022-12-20T19:34:16.450Z,66.47
2022-12-20T19:36:49.253Z,66.13
2022-12-20T19:39:26.623Z,65.93
2022-12-20T19:42:22.401Z,65.68
2022-12-20T19:44:43.330Z,65.64
2022-12-20T19:47:11.613Z,66.04
2022-12-20T19:49:40.022Z,65.53
2022-12-20T19:52:08.588Z,65.30
2022-12-20T19:54:36.896Z,65.23
2022-12-20T19:57:05.509Z,64.94
2022-12-20T19:59:33.965Z,64.95
2022-12-20T20:02:02.473Z,64.89
2022-12-20T20:04:31.025Z,65.13
2022-12-20T20:06:59.759Z,64.68
2022-12-20T20:09:28.134Z,64.57
2022-12-20T20:11:56.456Z,64.46
2022-12-20T20:14:24.939Z,64.47
2022-12-20T20:16:53.899Z,63.70
2022-12-20T20:19:22.189Z,64.13
2022-12-20T20:21:50.798Z,64.10
2022-12-20T20:24:19.127Z,63.76
2022-12-20T20:26:47.464Z,64.05
2022-12-20T20:29:15.846Z,63.67
2022-12-20T20:31:44.366Z,63.61
2022-12-20T20:34:13.232Z,63.33
2022-12-20T20:36:41.593Z,63.14
2022-12-20T20:39:10.049Z,63.00
2022-12-20T20:41:38.355Z,63.16
2022-12-20T20:44:06.691Z,63.06
2022-12-20T20:46:35.069Z,63.11
2022-12-20T20:49:03.602Z,62.78
2022-12-20T20:51:31.973Z,62.51
2022-12-20T20:54:00.350Z,62.73
2022-12-20T20:56:28.777Z,62.80
2022-12-20T20:59:05.108Z,63.26
2022-12-20T21:01:35.631Z,62.73
2022-12-20T21:04:05.779Z,62.80
2022-12-20T21:06:40.984Z,62.57
2022-12-20T21:09:11.095Z,62.69
2022-12-20T21:11:39.909Z,62.14
2022-12-20T21:14:08.452Z,61.41
2022-12-20T21:16:37.670Z,62.03
2022-12-20T21:19:06.642Z,62.17
2022-12-20T21:21:35.067Z,61.91
2022-12-20T21:24:03.950Z,61.65
2022-12-20T21:26:32.612Z,61.88
2022-12-20T21:29:02.088Z,61.48
2022-12-20T21:31:31.711Z,61.92
2022-12-20T21:34:00.289Z,61.56
2022-12-20T21:36:28.931Z,61.18
2022-12-20T21:38:59.239Z,61.38
2022-12-20T21:41:29.892Z,61.04
2022-12-20T21:44:00.254Z,61.06
2022-12-20T21:46:32.720Z,61.23
2022-12-20T21:49:01.365Z,60.98
2022-12-20T21:51:31.159Z,60.24
2022-12-20T21:54:02.030Z,60.43
2022-12-20T21:56:32.833Z,60.55
2022-12-20T21:59:01.717Z,59.08
2022-12-20T22:01:30.732Z,59.96
2022-12-20T22:04:04.527Z,60.15
2022-12-20T22:06:33.554Z,59.87
2022-12-20T22:09:03.743Z,59.60
2022-12-20T22:11:32.408Z,59.22
2022-12-20T22:14:01.137Z,59.53
2022-12-20T22:16:32.630Z,59.48
2022-12-20T22:19:02.048Z,59.71
2022-12-20T22:21:32.664Z,59.33
2022-12-20T22:24:02.207Z,59.43
2022-12-20T22:26:32.979Z,58.73
2022-12-20T22:29:04.991Z,59.06
2022-12-20T22:31:33.565Z,58.63
2022-12-20T22:34:02.857Z,58.33
2022-12-20T22:36:31.318Z,58.35
2022-12-20T22:39:00.143Z,57.17
2022-12-20T22:41:35.747Z,57.51
2022-12-20T22:44:05.097Z,58.05
2022-12-20T22:46:33.779Z,58.00
2022-12-20T22:49:02.395Z,57.24
2022-12-20T22:51:34.142Z,57.28
2022-12-20T22:54:02.453Z,57.16
2022-12-20T22:56:30.843Z,56.51
2022-12-20T22:58:59.176Z,57.14
2022-12-20T23:01:28.337Z,56.98
2022-12-20T23:03:56.842Z,56.67
2022-12-20T23:06:25.262Z,56.63
2022-12-20T23:08:53.596Z,56.88
2022-12-20T23:11:43.138Z,57.54
2022-12-20T23:14:41.497Z,57.30
2022-12-20T23:17:11.354Z,58.05
2022-12-20T23:19:57.995Z,57.99
2022-12-20T23:22:38.670Z,58.19
2022-12-20T23:25:15.369Z,57.99
2022-12-20T23:27:45.870Z,57.76
2022-12-20T23:30:17.618Z,58.11
2022-12-20T23:32:46.176Z,58.27
2022-12-20T23:35:19.523Z,58.04
2022-12-20T23:37:48.793Z,58.16
2022-12-20T23:40:18.075Z,57.96
2022-12-20T23:42:46.897Z,57.93
2022-12-20T23:45:15.283Z,58.45
2022-12-20T23:47:43.580Z,58.31
2022-12-20T23:50:12.399Z,57.95
2022-12-20T23:52:41.396Z,57.58
2022-12-20T23:55:10.014Z,58.47
2022-12-20T23:57:38.340Z,58.08
